Impacts METAR Board INFO
IDs:

KSAN - San Diego Intl Arpt, CA, US

Updated at: 1112 UTC 11 Dec 2017
Potential Impact None Slight Moderate High
Time10/23Z 11/00Z 11/01Z 11/02Z 11/03Z 11/04Z 11/05Z 11/06Z 11/07Z 11/08Z 11/09Z 11/10Z 11/11Z
VIS10 10 10 10 10 10 10 10 10 10 10 10 10
CIG250 250 250 -- -- -- 250 250 250 250 250 250 250
CoverBKNBKNBKNSCTSCTSCTBKNBKNBKNBKNBKNBKNBKN
FltCatVFRVFRVFRVFRVFRVFRVFRVFRVFRVFRVFRVFRVFR
WX--------------------------
WDir320310000360035003603603600
WSpd7 4 0 0 0 4 0 3 0 4 3 3 0
WGst-- -- -- -- -- -- -- -- -- -- -- -- --
Raw hourly METARs
KSAN 102251Z 32007KT 10SM FEW010 BKN250 24/M05 A3008 RMK AO2 SLP186 FU FEW010 T02391050
KSAN 102351Z 31004KT 10SM FEW010 BKN250 23/M05 A3009 RMK AO2 SLP188 FU FEW010 T02331050 10261 20211 55002
KSAN 110051Z 00000KT 10SM FEW010 BKN250 22/M03 A3010 RMK AO2 SLP193 FU FEW010 T02221033
KSAN 110151Z 00000KT 10SM SCT250 20/M04 A3012 RMK AO2 SLP199 T02001039
KSAN 110251Z 00000KT 10SM SCT250 19/M04 A3014 RMK AO2 SLP204 T01891039 53016
KSAN 110351Z 36004KT 10SM SCT250 18/M03 A3014 RMK AO2 SLP207 T01781033
KSAN 110451Z 00000KT 10SM BKN250 17/M03 A3015 RMK AO2 SLP210 T01671033
KSAN 110551Z 35003KT 10SM BKN250 16/M02 A3016 RMK AO2 SLP213 T01561017 10233 20156 51009
KSAN 110651Z 00000KT 10SM BKN250 16/M03 A3017 RMK AO2 SLP216 T01611028
KSAN 110751Z 36004KT 10SM BKN250 17/M07 A3016 RMK AO2 SLP213 T01671067 402610117
KSAN 110851Z 36003KT 10SM BKN250 17/M08 A3015 RMK AO2 SLP209 T01721078 58004
KSAN 110951Z 36003KT 10SM BKN250 17/M08 A3015 RMK AO2 SLP209 T01721078
KSAN 111051Z 00000KT 10SM BKN250 15/M06 A3014 RMK AO2 SLP206 T01501061